createdAt,value
2022-12-24T00:01:05.985Z,10.23
2022-12-24T00:03:34.093Z,10.13
2022-12-24T00:06:06.552Z,9.45
2022-12-24T00:08:33.872Z,10.25
2022-12-24T00:11:01.259Z,10.38
2022-12-24T00:13:28.939Z,9.93
2022-12-24T00:15:56.215Z,9.77
2022-12-24T00:18:23.685Z,9.95
2022-12-24T00:20:51.482Z,10.48
2022-12-24T00:23:19.373Z,11.15
2022-12-24T00:25:47.129Z,8.98
2022-12-24T00:28:15.196Z,9.63
2022-12-24T00:30:43.676Z,9.55
2022-12-24T00:33:11.423Z,8.80
2022-12-24T00:35:40.005Z,9.57
2022-12-24T00:38:08.225Z,8.93
2022-12-24T00:40:35.964Z,10.07
2022-12-24T00:43:03.302Z,9.50
2022-12-24T00:45:30.593Z,9.90
2022-12-24T00:47:57.889Z,10.50
2022-12-24T00:50:25.347Z,11.20
2022-12-24T00:52:52.635Z,9.55
2022-12-24T00:55:20.429Z,10.10
2022-12-24T00:57:47.762Z,9.63
2022-12-24T01:00:17.817Z,9.43
2022-12-24T01:02:45.356Z,9.18
2022-12-24T01:05:13.253Z,9.07
2022-12-24T01:07:44.899Z,9.48
2022-12-24T01:10:14.591Z,9.43
2022-12-24T01:12:41.961Z,9.07
2022-12-24T01:15:10.159Z,7.90
2022-12-24T01:17:37.632Z,8.13
2022-12-24T01:20:07.286Z,8.05
2022-12-24T01:22:34.870Z,7.57
2022-12-24T01:25:02.167Z,8.55
2022-12-24T01:27:29.532Z,7.30
2022-12-24T01:29:56.872Z,7.78
2022-12-24T01:32:24.220Z,7.18
2022-12-24T01:34:51.464Z,7.68
2022-12-24T01:37:18.781Z,6.95
2022-12-24T01:39:46.133Z,6.88
2022-12-24T01:42:40.474Z,7.18
2022-12-24T01:45:54.994Z,7.25
2022-12-24T01:48:22.503Z,8.10
2022-12-24T01:50:53.732Z,7.68
2022-12-24T01:53:21.069Z,7.43
2022-12-24T01:55:48.854Z,7.43
2022-12-24T01:58:17.110Z,7.75
2022-12-24T02:00:44.673Z,7.75
2022-12-24T02:03:12.358Z,9.65
2022-12-24T02:05:50.158Z,8.85
2022-12-24T02:08:18.436Z,9.35
2022-12-24T02:10:47.114Z,8.48
2022-12-24T02:13:16.249Z,10.07
2022-12-24T02:15:56.016Z,10.02
2022-12-24T02:18:39.764Z,9.73
2022-12-24T02:21:44.829Z,9.40
2022-12-24T02:24:23.487Z,8.68
2022-12-24T02:27:19.844Z,9.73
2022-12-24T02:30:02.303Z,9.05
2022-12-24T02:32:36.840Z,9.98
2022-12-24T02:35:20.621Z,11.10
2022-12-24T02:38:17.145Z,10.93
2022-12-24T02:41:25.620Z,10.25
2022-12-24T02:43:54.940Z,9.27
2022-12-24T02:46:26.334Z,10.40
2022-12-24T02:48:53.748Z,9.95
2022-12-24T02:51:25.293Z,9.98
2022-12-24T02:53:53.072Z,11.18
2022-12-24T02:56:48.070Z,10.43
2022-12-24T02:59:32.125Z,8.70
2022-12-24T03:02:24.701Z,9.88
2022-12-24T03:05:09.494Z,9.27
2022-12-24T03:07:48.829Z,9.98
2022-12-24T03:10:32.177Z,8.85
2022-12-24T03:13:05.017Z,9.65
2022-12-24T03:18:02.133Z,9.27
2022-12-24T03:21:29.869Z,9.32
2022-12-24T03:23:57.643Z,9.18
2022-12-24T03:26:25.827Z,8.85
2022-12-24T03:28:53.541Z,8.85
2022-12-24T03:31:21.215Z,8.93
2022-12-24T03:33:48.887Z,8.48
2022-12-24T03:36:16.826Z,8.73
2022-12-24T03:38:44.227Z,8.00
2022-12-24T03:41:11.530Z,9.60
2022-12-24T03:43:38.771Z,10.23
2022-12-24T03:46:07.914Z,8.20
2022-12-24T03:48:35.927Z,9.20
2022-12-24T03:51:04.001Z,9.23
2022-12-24T03:53:31.543Z,9.95
2022-12-24T03:55:59.163Z,9.13
2022-12-24T03:58:26.515Z,8.88
2022-12-24T04:00:54.994Z,9.23
2022-12-24T04:03:22.403Z,9.20
2022-12-24T04:05:59.458Z,9.70
2022-12-24T04:08:26.723Z,10.18
2022-12-24T04:10:54.024Z,8.85
2022-12-24T04:13:21.289Z,9.73
2022-12-24T04:16:01.549Z,8.93
2022-12-24T04:18:29.434Z,10.05
2022-12-24T04:20:56.900Z,10.88
2022-12-24T04:23:24.798Z,11.02
2022-12-24T04:25:52.099Z,10.77
2022-12-24T04:28:19.431Z,10.68
2022-12-24T04:30:46.685Z,10.57
2022-12-24T04:33:14.040Z,10.68
2022-12-24T04:35:41.931Z,10.10
2022-12-24T04:38:10.305Z,11.52
2022-12-24T04:40:37.698Z,10.63
2022-12-24T04:43:04.995Z,11.65
2022-12-24T04:45:33.018Z,12.65
2022-12-24T04:48:00.425Z,10.80
2022-12-24T04:50:27.795Z,11.27
2022-12-24T04:52:55.131Z,11.80
2022-12-24T04:55:22.467Z,11.85
2022-12-24T04:57:52.869Z,12.27
2022-12-24T05:00:20.860Z,11.68
2022-12-24T05:02:48.279Z,11.65
2022-12-24T05:05:18.317Z,12.50
2022-12-24T05:07:45.614Z,11.15
2022-12-24T05:10:12.940Z,11.00
2022-12-24T05:12:40.214Z,12.40
2022-12-24T05:15:08.127Z,11.75
2022-12-24T05:17:35.563Z,11.10
2022-12-24T05:20:03.001Z,11.40
2022-12-24T05:22:48.951Z,13.20
2022-12-24T05:25:35.216Z,11.50
2022-12-24T05:28:02.580Z,11.63
2022-12-24T05:30:29.919Z,11.30
2022-12-24T05:32:57.277Z,11.30
2022-12-24T05:35:24.551Z,12.07
2022-12-24T05:37:51.852Z,11.43
2022-12-24T05:40:19.298Z,11.05
2022-12-24T05:42:46.677Z,11.65
2022-12-24T05:45:14.020Z,11.90
2022-12-24T05:47:43.478Z,12.65
2022-12-24T05:50:11.665Z,10.88
2022-12-24T05:52:38.925Z,11.27
2022-12-24T05:55:06.730Z,11.85
2022-12-24T05:57:34.017Z,12.75
2022-12-24T06:00:01.312Z,11.02
2022-12-24T06:02:28.751Z,11.43
2022-12-24T06:04:56.197Z,11.68
2022-12-24T06:07:23.528Z,11.00
2022-12-24T06:09:50.785Z,11.10
2022-12-24T06:12:18.329Z,11.57
2022-12-24T06:14:45.687Z,10.35
2022-12-24T06:17:13.011Z,10.55
2022-12-24T06:19:40.334Z,11.75
2022-12-24T06:22:07.656Z,10.73
2022-12-24T06:24:34.957Z,11.27
2022-12-24T06:27:02.328Z,11.27
2022-12-24T06:29:29.720Z,11.20
2022-12-24T06:31:57.058Z,10.13
2022-12-24T06:34:24.590Z,11.43
2022-12-24T06:36:52.020Z,10.30
2022-12-24T06:39:19.329Z,9.90
2022-12-24T06:41:46.648Z,9.68
2022-12-24T06:44:13.921Z,9.45
2022-12-24T06:46:41.269Z,10.00
2022-12-24T06:49:08.616Z,9.68
2022-12-24T06:51:36.030Z,8.82
2022-12-24T06:54:03.404Z,9.85
2022-12-24T06:56:30.630Z,9.90
2022-12-24T06:59:04.887Z,10.30
2022-12-24T07:01:32.851Z,11.43
2022-12-24T07:04:00.346Z,9.48
2022-12-24T07:06:29.768Z,10.18
2022-12-24T07:08:57.189Z,9.00
2022-12-24T07:11:25.746Z,9.80
2022-12-24T07:13:53.154Z,10.85
2022-12-24T07:16:20.752Z,11.02
2022-12-24T07:18:48.402Z,9.10
2022-12-24T07:21:15.817Z,11.40
2022-12-24T07:23:43.229Z,9.60
2022-12-24T07:26:11.474Z,10.07
2022-12-24T07:28:38.871Z,9.88
2022-12-24T07:31:07.388Z,11.77
2022-12-24T07:33:34.768Z,10.45
2022-12-24T07:36:10.413Z,9.65
2022-12-24T07:38:38.919Z,10.38
2022-12-24T07:41:06.325Z,10.63
2022-12-24T07:43:34.169Z,10.23
2022-12-24T07:46:01.553Z,8.73
2022-12-24T07:48:29.947Z,10.13
2022-12-24T07:50:58.257Z,9.20
2022-12-24T07:53:27.035Z,10.38
2022-12-24T07:55:54.931Z,10.48
2022-12-24T07:58:23.191Z,10.70
2022-12-24T08:00:55.313Z,10.35
2022-12-24T08:03:23.072Z,10.65
2022-12-24T08:05:50.539Z,10.48
2022-12-24T08:08:17.839Z,11.00
2022-12-24T08:10:46.131Z,9.98
2022-12-24T08:13:14.963Z,10.52
2022-12-24T08:15:43.155Z,10.52
2022-12-24T08:18:11.330Z,10.32
2022-12-24T08:20:40.173Z,10.13
2022-12-24T08:23:08.415Z,9.10
2022-12-24T08:25:35.889Z,9.73
2022-12-24T08:28:04.587Z,9.05
2022-12-24T08:30:50.712Z,10.50
2022-12-24T08:33:18.818Z,9.20
2022-12-24T08:35:50.651Z,8.65
2022-12-24T08:38:18.044Z,9.55
2022-12-24T08:40:48.801Z,8.68
2022-12-24T08:43:17.493Z,9.43
2022-12-24T08:45:45.317Z,10.15
2022-12-24T08:48:14.071Z,9.30
2022-12-24T08:50:42.232Z,8.73
2022-12-24T08:53:13.069Z,10.00
2022-12-24T08:55:40.859Z,9.80
2022-12-24T08:58:08.226Z,9.18
2022-12-24T09:00:38.342Z,9.25
2022-12-24T09:03:06.856Z,8.88
2022-12-24T09:05:34.187Z,8.63
2022-12-24T09:08:02.356Z,10.00
2022-12-24T09:10:30.128Z,9.23
2022-12-24T09:13:00.264Z,9.10
2022-12-24T09:15:27.650Z,9.43
2022-12-24T09:17:55.053Z,10.73
2022-12-24T09:20:22.934Z,9.52
2022-12-24T09:22:50.450Z,10.18
2022-12-24T09:25:17.820Z,8.50
2022-12-24T09:27:45.073Z,7.97
2022-12-24T09:30:13.137Z,9.73
2022-12-24T09:32:40.551Z,8.90
2022-12-24T09:35:09.620Z,10.13
2022-12-24T09:37:48.305Z,9.50
2022-12-24T09:40:37.655Z,9.02
2022-12-24T09:43:27.792Z,9.40
2022-12-24T09:46:04.026Z,10.45
2022-12-24T09:48:33.515Z,9.25
2022-12-24T09:51:12.653Z,9.52
2022-12-24T09:54:04.209Z,9.55
2022-12-24T09:56:45.260Z,9.50
2022-12-24T09:59:18.865Z,8.98
2022-12-24T10:01:48.315Z,9.25
2022-12-24T10:04:19.753Z,9.15
2022-12-24T10:07:10.635Z,8.88
2022-12-24T10:09:52.888Z,8.50
2022-12-24T10:12:33.166Z,9.37
2022-12-24T10:15:27.916Z,9.18
2022-12-24T10:18:14.936Z,9.45
2022-12-24T10:21:21.419Z,9.52
2022-12-24T10:24:14.230Z,9.43
2022-12-24T10:26:53.836Z,9.00
2022-12-24T10:29:31.106Z,9.20
2022-12-24T10:32:29.069Z,9.00
2022-12-24T10:35:04.464Z,9.82
2022-12-24T10:37:32.131Z,9.05
2022-12-24T10:40:00.613Z,9.57
2022-12-24T10:42:50.589Z,8.63
2022-12-24T10:45:22.113Z,9.13
2022-12-24T10:47:56.313Z,8.00
2022-12-24T10:50:35.514Z,8.45
2022-12-24T10:53:28.727Z,8.88
2022-12-24T10:56:07.210Z,8.30
2022-12-24T10:58:35.663Z,8.50
2022-12-24T11:01:04.004Z,9.88
2022-12-24T11:03:34.384Z,9.35
2022-12-24T11:06:12.009Z,8.23
2022-12-24T11:08:42.256Z,9.45
2022-12-24T11:11:20.391Z,8.15
2022-12-24T11:13:50.556Z,8.85
2022-12-24T11:16:26.889Z,8.23
2022-12-24T11:18:58.896Z,11.65
2022-12-24T11:21:58.307Z,12.38
2022-12-24T11:24:29.305Z,9.30
2022-12-24T11:27:28.672Z,10.02
2022-12-24T11:30:18.297Z,8.45
2022-12-24T11:32:48.092Z,9.77
2022-12-24T11:35:22.653Z,10.20
2022-12-24T11:38:12.343Z,10.30
2022-12-24T11:40:45.116Z,8.75
2022-12-24T11:43:22.797Z,9.55
2022-12-24T11:45:55.551Z,9.70
2022-12-24T11:51:05.171Z,8.93
2022-12-24T11:53:56.802Z,8.95
2022-12-24T11:56:38.691Z,8.98
2022-12-24T11:59:33.057Z,9.18
2022-12-24T12:02:19.587Z,8.63
2022-12-24T12:04:51.307Z,8.35
2022-12-24T12:07:46.648Z,8.38
2022-12-24T12:10:36.120Z,9.00
2022-12-24T12:13:15.543Z,9.10
2022-12-24T12:15:53.788Z,9.02
2022-12-24T12:18:27.296Z,8.45
2022-12-24T12:21:10.196Z,9.27
2022-12-24T12:23:48.117Z,8.75
2022-12-24T12:26:57.449Z,8.90
2022-12-24T12:29:42.080Z,8.52
2022-12-24T12:32:21.325Z,8.20
2022-12-24T12:35:15.302Z,9.40
2022-12-24T12:37:47.671Z,8.05
2022-12-24T12:40:16.545Z,9.32
2022-12-24T12:43:42.478Z,8.65
2022-12-24T12:46:32.672Z,8.15
2022-12-24T12:49:21.128Z,8.25
2022-12-24T12:52:13.279Z,8.02
2022-12-24T12:54:52.749Z,8.45
2022-12-24T12:57:24.170Z,8.73
2022-12-24T12:59:59.911Z,8.48
2022-12-24T13:02:43.713Z,8.35
2022-12-24T13:05:43.671Z,8.18
2022-12-24T13:08:10.981Z,8.82
2022-12-24T13:10:44.906Z,7.95
2022-12-24T13:13:40.171Z,8.73
2022-12-24T13:16:40.120Z,8.07
2022-12-24T13:19:26.399Z,8.65
2022-12-24T13:21:55.864Z,8.27
2022-12-24T13:24:28.997Z,7.82
2022-12-24T13:27:12.045Z,7.57
2022-12-24T13:30:09.798Z,9.50
2022-12-24T13:32:56.682Z,8.13
2022-12-24T13:35:25.128Z,8.50
2022-12-24T13:37:52.880Z,7.65
2022-12-24T13:40:29.375Z,8.60
2022-12-24T13:43:02.389Z,8.07
2022-12-24T13:45:30.123Z,7.72
2022-12-24T13:47:59.989Z,8.70
2022-12-24T13:50:36.919Z,8.70
2022-12-24T13:53:08.283Z,8.40
2022-12-24T13:55:35.611Z,8.30
2022-12-24T13:58:05.277Z,8.55
2022-12-24T14:00:43.873Z,8.45
2022-12-24T14:03:14.723Z,9.23
2022-12-24T14:06:08.226Z,8.60
2022-12-24T14:08:49.965Z,8.63
2022-12-24T14:11:20.059Z,8.90
2022-12-24T14:14:09.242Z,8.45
2022-12-24T14:16:49.633Z,8.50
2022-12-24T14:19:20.413Z,8.10
2022-12-24T14:22:05.215Z,8.65
2022-12-24T14:24:37.666Z,9.35
2022-12-24T14:27:17.674Z,8.40
2022-12-24T14:29:57.308Z,8.43
2022-12-24T14:32:27.070Z,8.60
2022-12-24T14:35:23.039Z,8.45
2022-12-24T14:37:52.886Z,8.70
2022-12-24T14:40:49.310Z,8.02
2022-12-24T14:43:35.945Z,8.57
2022-12-24T14:46:28.832Z,8.63
2022-12-24T14:49:05.198Z,8.68
2022-12-24T14:51:50.590Z,9.05
2022-12-24T14:54:39.298Z,8.50
2022-12-24T14:57:15.740Z,9.18
2022-12-24T15:00:02.387Z,9.82
2022-12-24T15:02:52.906Z,8.50
2022-12-24T15:05:24.722Z,8.93
2022-12-24T15:08:04.814Z,9.15
2022-12-24T15:11:03.312Z,8.25
2022-12-24T15:13:36.788Z,9.48
2022-12-24T15:16:14.628Z,10.30
2022-12-24T15:22:33.098Z,10.00
2022-12-24T15:25:07.575Z,10.10
2022-12-24T15:27:40.141Z,10.43
2022-12-24T15:30:17.204Z,10.10
2022-12-24T15:32:52.918Z,10.35
2022-12-24T15:35:47.732Z,10.02
2022-12-24T15:38:41.525Z,9.65
2022-12-24T15:41:18.172Z,10.63
2022-12-24T15:43:47.632Z,9.45
2022-12-24T15:46:23.483Z,12.02
2022-12-24T15:48:51.717Z,10.20
2022-12-24T15:51:34.664Z,10.32
2022-12-24T15:54:11.921Z,11.80
2022-12-24T15:56:44.447Z,11.73
2022-12-24T15:59:13.159Z,11.88
2022-12-24T16:01:40.815Z,13.25
2022-12-24T16:04:16.906Z,12.20
2022-12-24T16:06:58.519Z,13.00
2022-12-24T16:09:45.750Z,13.65
2022-12-24T16:12:21.662Z,12.68
2022-12-24T16:14:52.493Z,13.88
2022-12-24T16:17:25.415Z,13.98
2022-12-24T16:22:32.194Z,15.88
2022-12-24T16:25:23.034Z,17.85
2022-12-24T16:27:55.531Z,18.45
2022-12-24T16:30:24.558Z,19.02
2022-12-24T16:32:51.982Z,19.95
2022-12-24T16:35:33.426Z,18.83
2022-12-24T16:38:00.779Z,18.33
2022-12-24T16:40:28.399Z,19.02
2022-12-24T16:43:15.817Z,19.02
2022-12-24T16:45:44.226Z,19.13
2022-12-24T16:48:22.491Z,18.13
2022-12-24T16:50:50.891Z,19.75
2022-12-24T16:53:19.432Z,18.50
2022-12-24T16:55:47.899Z,18.88
2022-12-24T16:58:16.100Z,19.42
2022-12-24T17:00:44.653Z,18.85
2022-12-24T17:03:12.916Z,20.05
2022-12-24T17:05:45.114Z,19.38
2022-12-24T17:08:13.047Z,19.52
2022-12-24T17:10:40.513Z,17.15
2022-12-24T17:13:08.049Z,17.13
2022-12-24T17:15:35.743Z,17.75
2022-12-24T17:18:03.147Z,19.20
2022-12-24T17:20:30.445Z,18.35
2022-12-24T17:22:58.920Z,18.02
2022-12-24T17:25:26.233Z,18.10
2022-12-24T17:27:53.557Z,18.38
2022-12-24T17:30:20.897Z,19.45
2022-12-24T17:32:48.204Z,19.30
2022-12-24T17:35:16.043Z,19.77
2022-12-24T17:37:43.659Z,20.92
2022-12-24T17:40:11.833Z,20.73
2022-12-24T17:42:39.384Z,21.10
2022-12-24T17:45:07.295Z,22.67
2022-12-24T17:47:34.649Z,21.65
2022-12-24T17:50:01.940Z,22.60
2022-12-24T17:52:29.418Z,22.30
2022-12-24T17:54:56.696Z,21.27
2022-12-24T17:57:24.031Z,20.77
2022-12-24T17:59:52.397Z,20.33
2022-12-24T18:02:19.800Z,21.10
2022-12-24T18:04:47.283Z,20.73
2022-12-24T18:07:14.566Z,21.33
2022-12-24T18:09:45.005Z,21.60
2022-12-24T18:12:13.380Z,20.70
2022-12-24T18:14:41.339Z,20.30
2022-12-24T18:17:09.880Z,21.58
2022-12-24T18:19:37.169Z,20.45
2022-12-24T18:22:04.496Z,20.55
2022-12-24T18:24:31.748Z,21.25
2022-12-24T18:26:59.243Z,21.70
2022-12-24T18:29:26.529Z,21.48
2022-12-24T18:31:55.417Z,20.98
2022-12-24T18:34:26.367Z,20.80
2022-12-24T18:36:56.051Z,20.65
2022-12-24T18:39:23.415Z,23.70
2022-12-24T18:41:51.190Z,22.08
2022-12-24T18:44:24.563Z,20.13
2022-12-24T18:46:53.582Z,20.20
2022-12-24T18:49:21.030Z,19.45
2022-12-24T18:51:48.377Z,20.40
2022-12-24T18:54:17.057Z,20.27
2022-12-24T18:56:44.399Z,19.20
2022-12-24T18:59:12.825Z,18.52
2022-12-24T19:01:40.234Z,19.35
2022-12-24T19:04:07.715Z,19.65
2022-12-24T19:06:35.129Z,19.02
2022-12-24T19:09:02.894Z,19.30
2022-12-24T19:11:32.624Z,18.13
2022-12-24T19:14:00.379Z,20.73
2022-12-24T19:16:30.112Z,20.27
2022-12-24T19:18:57.624Z,21.00
2022-12-24T19:21:27.625Z,20.15
2022-12-24T19:23:55.080Z,19.52
2022-12-24T19:26:22.768Z,20.45
2022-12-24T19:28:50.459Z,20.20
2022-12-24T19:31:24.235Z,19.75
2022-12-24T19:33:56.326Z,20.10
2022-12-24T19:36:29.227Z,18.93
2022-12-24T19:41:26.498Z,18.85
2022-12-24T19:43:56.497Z,19.73
2022-12-24T19:46:26.515Z,20.67
2022-12-24T19:48:56.596Z,21.35
2022-12-24T19:51:24.482Z,20.77
2022-12-24T19:54:01.895Z,22.42
2022-12-24T19:56:32.791Z,22.60
2022-12-24T19:59:01.720Z,24.00
2022-12-24T20:01:31.153Z,24.63
2022-12-24T20:03:59.121Z,23.90
2022-12-24T20:06:30.279Z,24.42
2022-12-24T20:09:06.860Z,22.38
2022-12-24T20:11:34.914Z,20.60
2022-12-24T20:14:04.289Z,21.80
2022-12-24T20:16:35.685Z,23.42
2022-12-24T20:19:05.191Z,23.85
2022-12-24T20:21:33.864Z,23.15
2022-12-24T20:24:01.577Z,23.30
2022-12-24T20:26:33.125Z,21.40
2022-12-24T20:29:04.675Z,20.80
2022-12-24T20:31:32.278Z,20.90
2022-12-24T20:34:02.354Z,20.75
2022-12-24T20:36:31.263Z,21.98
2022-12-24T20:39:20.623Z,23.05
2022-12-24T20:41:48.186Z,22.05
2022-12-24T20:47:33.844Z,21.80
2022-12-24T20:50:09.061Z,21.92
2022-12-24T20:52:36.443Z,21.05
2022-12-24T20:55:03.821Z,20.65
2022-12-24T20:57:36.329Z,20.80
2022-12-24T21:05:25.990Z,21.45
2022-12-24T21:08:09.455Z,20.05
2022-12-24T21:10:37.767Z,20.70
2022-12-24T21:13:05.687Z,21.80
2022-12-24T21:15:36.148Z,21.10
2022-12-24T21:18:10.536Z,20.63
2022-12-24T21:20:40.499Z,19.65
2022-12-24T21:23:07.953Z,20.42
2022-12-24T21:25:36.851Z,20.45
2022-12-24T21:28:04.351Z,20.63
2022-12-24T21:30:32.551Z,20.33
2022-12-24T21:32:59.975Z,21.20
2022-12-24T21:35:27.305Z,22.95
2022-12-24T21:37:54.675Z,22.85
2022-12-24T21:40:22.003Z,19.95
2022-12-24T21:42:49.329Z,20.52
2022-12-24T21:45:16.705Z,21.67
2022-12-24T21:47:44.686Z,20.73
2022-12-24T21:50:32.368Z,19.73
2022-12-24T21:53:18.944Z,19.75
2022-12-24T21:55:46.303Z,20.83
2022-12-24T21:58:13.798Z,19.33
2022-12-24T22:00:41.204Z,20.13
2022-12-24T22:03:08.566Z,21.13
2022-12-24T22:05:36.031Z,19.70
2022-12-24T22:08:21.968Z,21.60
2022-12-24T22:11:08.213Z,21.20
2022-12-24T22:13:35.634Z,21.63
2022-12-24T22:16:03.016Z,21.38
2022-12-24T22:18:30.302Z,20.98
2022-12-24T22:20:57.557Z,20.80
2022-12-24T22:23:24.871Z,20.48
2022-12-24T22:25:52.271Z,20.65
2022-12-24T22:28:20.083Z,21.58
2022-12-24T22:30:47.544Z,21.35
2022-12-24T22:33:14.943Z,20.70
2022-12-24T22:35:42.517Z,18.83
2022-12-24T22:38:10.490Z,19.58
2022-12-24T22:40:39.997Z,20.38
2022-12-24T22:43:07.363Z,18.83
2022-12-24T22:45:34.649Z,19.02
2022-12-24T22:48:02.057Z,19.50
2022-12-24T22:50:29.393Z,18.60
2022-12-24T22:53:05.305Z,26.58
2022-12-24T22:55:32.569Z,24.58
2022-12-24T22:58:00.000Z,18.85
2022-12-24T23:00:44.628Z,18.02
2022-12-24T23:03:12.185Z,17.95
2022-12-24T23:05:40.092Z,18.88
2022-12-24T23:08:08.220Z,19.48
2022-12-24T23:10:36.292Z,19.08
2022-12-24T23:13:22.656Z,18.83
2022-12-24T23:15:50.048Z,19.08
2022-12-24T23:18:17.378Z,22.90
2022-12-24T23:20:45.432Z,19.33
2022-12-24T23:23:14.059Z,19.20
2022-12-24T23:25:41.411Z,19.88
2022-12-24T23:28:08.710Z,19.55
2022-12-24T23:30:37.054Z,20.63
2022-12-24T23:33:04.717Z,18.58
2022-12-24T23:35:32.163Z,18.42
2022-12-24T23:37:59.652Z,20.23
2022-12-24T23:40:26.984Z,19.42
2022-12-24T23:42:54.253Z,19.05
2022-12-24T23:45:21.538Z,19.90
2022-12-24T23:47:48.782Z,20.60
2022-12-24T23:50:16.136Z,20.90
2022-12-24T23:52:43.405Z,19.98
2022-12-24T23:55:10.787Z,20.73
2022-12-24T23:57:38.144Z,20.00
